Time;durP1;ratioP1;P1;durP2;ratioP2;P2;SDS_P1;SDS_P2;PMS_P1;PMS_P2;Temp;Humidity;BMP_temperature;BMP_pressure;BME280_temperature;BME280_humidity;BME280_pressure;Samples;Min_cycle;Max_cycle;Signal;HPM_P1;HPM_P2
2022/08/02 00:00:13;;;;;;;11.32;3.97;;;;;;;;;;4995213;28;20056;-66
2022/08/02 00:02:44;;;;;;;10.27;5.30;;;;;;;;;;5008901;28;20453;-65
2022/08/02 00:05:15;;;;;;;11.05;3.88;;;;;;;;;;4960684;28;20085;-67
2022/08/02 00:07:46;;;;;;;10.10;4.03;;;;;;;;;;5009387;28;20054;-65
2022/08/02 00:10:16;;;;;;;12.52;4.05;;;;;;;;;;5009072;28;20233;-65
2022/08/02 00:12:47;;;;;;;11.00;4.50;;;;;;;;;;4976456;28;20049;-65
2022/08/02 00:15:17;;;;;;;10.85;4.13;;;;;;;;;;5009147;28;20096;-65
2022/08/02 00:17:48;;;;;;;11.35;4.70;;;;;;;;;;4950557;29;20059;-65
2022/08/02 00:20:19;;;;;;;11.73;4.10;;;;;;;;;;4940915;29;20059;-65
2022/08/02 00:22:49;;;;;;;11.73;4.63;;;;;;;;;;4930753;29;20620;-65
2022/08/02 00:25:19;;;;;;;13.27;5.10;;;;;;;;;;4931071;29;20480;-65
2022/08/02 00:27:50;;;;;;;9.90;4.72;;;;;;;;;;4931078;29;20488;-65
2022/08/02 00:30:21;;;;;;;10.57;4.93;;;;;;;;;;4931140;29;20052;-65
2022/08/02 00:32:51;;;;;;;10.05;4.43;;;;;;;;;;4949907;29;20443;-66
2022/08/02 00:35:21;;;;;;;12.43;5.43;;;;;;;;;;4950152;29;20070;-65
2022/08/02 00:37:51;;;;;;;13.70;5.65;;;;;;;;;;4949627;29;20055;-67
2022/08/02 00:40:23;;;;;;;11.35;5.47;;;;;;;;;;4950000;29;20156;-67
2022/08/02 00:43:10;;;;;;;16.40;5.15;;;;;;;;;;4950496;29;20055;-66
2022/08/02 00:45:41;;;;;;;10.82;4.80;;;;;;;;;;4930226;29;20047;-66
2022/08/02 00:48:32;;;;;;;13.52;4.82;;;;;;;;;;4911976;29;20063;-66
2022/08/02 00:51:03;;;;;;;18.90;5.32;;;;;;;;;;4930603;28;20106;-66
2022/08/02 00:53:33;;;;;;;12.88;5.70;;;;;;;;;;4949209;28;20384;-66
2022/08/02 00:56:03;;;;;;;14.07;5.82;;;;;;;;;;4898992;29;20055;-66
2022/08/02 00:58:34;;;;;;;12.82;5.88;;;;;;;;;;4934167;29;20059;-67
2022/08/02 01:01:05;;;;;;;11.13;5.38;;;;;;;;;;4937332;29;20051;-66
2022/08/02 01:03:35;;;;;;;14.82;5.65;;;;;;;;;;4937787;28;20039;-67
2022/08/02 01:06:07;;;;;;;15.77;5.88;;;;;;;;;;4934057;29;20052;-66
2022/08/02 01:08:39;;;;;;;16.60;5.60;;;;;;;;;;4934999;29;20060;-66
2022/08/02 01:11:12;;;;;;;11.68;5.30;;;;;;;;;;4949850;29;20059;-65
2022/08/02 01:13:43;;;;;;;15.32;7.05;;;;;;;;;;4953704;29;20451;-65
2022/08/02 01:16:20;;;;;;;14.48;5.65;;;;;;;;;;4953558;29;20173;-67
2022/08/02 01:19:01;;;;;;;12.27;5.70;;;;;;;;;;4953826;29;20051;-65
2022/08/02 01:21:58;;;;;;;13.93;5.35;;;;;;;;;;4953350;29;20059;-64
2022/08/02 01:24:46;;;;;;;13.73;5.63;;;;;;;;;;4918906;29;20111;-66
2022/08/02 01:27:38;;;;;;;12.88;5.32;;;;;;;;;;4934463;29;20056;-67
2022/08/02 01:30:11;;;;;;;15.80;6.18;;;;;;;;;;4933080;29;20047;-66
2022/08/02 01:32:50;;;;;;;13.82;5.78;;;;;;;;;;4919661;28;20073;-66
2022/08/02 01:35:26;;;;;;;14.80;5.65;;;;;;;;;;4972815;28;20047;-66
2022/08/02 01:38:23;;;;;;;13.25;5.90;;;;;;;;;;4972985;28;20054;-65
2022/08/02 01:40:56;;;;;;;14.05;5.82;;;;;;;;;;4972622;28;20058;-65
2022/08/02 01:43:29;;;;;;;17.42;5.80;;;;;;;;;;4979386;28;20089;-65
2022/08/02 01:46:00;;;;;;;12.05;5.85;;;;;;;;;;4992230;28;20049;-65
2022/08/02 01:48:33;;;;;;;13.45;5.95;;;;;;;;;;4992262;28;20085;-65
2022/08/02 01:51:05;;;;;;;13.75;6.18;;;;;;;;;;4976138;28;20058;-65
2022/08/02 01:53:38;;;;;;;14.10;5.55;;;;;;;;;;4960703;28;20058;-65
2022/08/02 01:56:10;;;;;;;12.70;5.85;;;;;;;;;;4992094;28;20083;-66
2022/08/02 01:58:41;;;;;;;;;;;;;;;;;;4994993;28;20062;-65
2022/08/02 02:01:12;;;;;;;11.93;6.03;;;;;;;;;;5035993;28;19920;-66
2022/08/02 02:03:49;;;;;;;11.23;5.35;;;;;;;;;;5030959;28;20053;-65
2022/08/02 02:06:21;;;;;;;11.90;5.88;;;;;;;;;;5031225;28;20091;-66
2022/08/02 02:08:52;;;;;;;12.77;5.47;;;;;;;;;;5030413;28;20076;-66
2022/08/02 02:11:22;;;;;;;18.75;6.32;;;;;;;;;;5014762;28;20532;-67
2022/08/02 02:14:14;;;;;;;14.80;6.20;;;;;;;;;;5031278;28;20042;-70
2022/08/02 02:16:47;;;;;;;14.73;6.00;;;;;;;;;;5010908;28;20042;-65
2022/08/02 02:19:19;;;;;;;13.77;5.85;;;;;;;;;;5010772;28;21270;-64
2022/08/02 02:21:51;;;;;;;18.15;6.60;;;;;;;;;;5010780;28;20073;-65
2022/08/02 02:24:22;;;;;;;16.33;6.13;;;;;;;;;;5010766;28;20468;-65
2022/08/02 02:26:53;;;;;;;13.85;5.85;;;;;;;;;;5010782;28;20049;-64
2022/08/02 02:29:27;;;;;;;12.98;5.50;;;;;;;;;;5010578;28;20531;-64
2022/08/02 02:32:00;;;;;;;20.73;6.40;;;;;;;;;;4994806;28;20060;-65
2022/08/02 02:34:37;;;;;;;20.58;7.28;;;;;;;;;;5010876;28;20060;-65
2022/08/02 02:37:12;;;;;;;16.33;6.60;;;;;;;;;;4971601;28;20055;-65
2022/08/02 02:39:44;;;;;;;18.55;6.28;;;;;;;;;;4971650;28;20058;-70
2022/08/02 02:42:18;;;;;;;13.50;6.72;;;;;;;;;;5006495;28;20117;-66
2022/08/02 02:44:51;;;;;;;16.05;6.85;;;;;;;;;;4993814;28;20190;-66
2022/08/02 02:47:22;;;;;;;12.38;6.25;;;;;;;;;;4990684;28;20057;-66
2022/08/02 02:50:11;;;;;;;14.73;6.15;;;;;;;;;;5009938;28;20061;-65
2022/08/02 02:52:42;;;;;;;14.52;6.20;;;;;;;;;;4971051;28;20058;-66
2022/08/02 02:55:13;;;;;;;13.27;6.18;;;;;;;;;;4932683;29;20066;-65
2022/08/02 02:57:44;;;;;;;16.40;6.28;;;;;;;;;;4933228;29;20504;-65
2022/08/02 03:00:15;;;;;;;18.08;6.97;;;;;;;;;;4932628;29;20067;-66
2022/08/02 03:02:46;;;;;;;13.70;6.75;;;;;;;;;;4932669;29;20064;-67
2022/08/02 03:05:17;;;;;;;16.23;6.35;;;;;;;;;;4932256;29;20564;-65
2022/08/02 03:07:47;;;;;;;13.80;5.95;;;;;;;;;;4932762;29;20060;-65
2022/08/02 03:10:17;;;;;;;13.80;6.25;;;;;;;;;;4932594;29;20056;-66
2022/08/02 03:12:48;;;;;;;14.15;6.57;;;;;;;;;;4951567;29;20062;-66
2022/08/02 03:15:21;;;;;;;14.95;5.72;;;;;;;;;;4951414;29;20055;-66
2022/08/02 03:17:51;;;;;;;18.35;6.82;;;;;;;;;;4951294;29;20059;-67
2022/08/02 03:20:24;;;;;;;15.82;6.55;;;;;;;;;;4951129;28;20055;-66
2022/08/02 03:22:55;;;;;;;16.45;6.78;;;;;;;;;;4951278;29;20047;-65
2022/08/02 03:25:25;;;;;;;15.38;7.03;;;;;;;;;;4938147;29;20440;-65
2022/08/02 03:27:55;;;;;;;16.38;6.93;;;;;;;;;;4887519;29;20180;-68
2022/08/02 03:30:26;;;;;;;14.45;6.63;;;;;;;;;;4951427;29;20062;-66
2022/08/02 03:32:57;;;;;;;17.98;5.90;;;;;;;;;;4951120;29;20051;-67
2022/08/02 03:35:27;;;;;;;15.68;7.43;;;;;;;;;;4951111;29;20419;-65
2022/08/02 03:37:59;;;;;;;13.45;6.53;;;;;;;;;;4916364;29;20129;-66
2022/08/02 03:40:30;;;;;;;18.88;7.15;;;;;;;;;;4932442;29;20064;-65
2022/08/02 03:43:02;;;;;;;15.73;6.38;;;;;;;;;;4897386;28;20054;-65
2022/08/02 03:45:33;;;;;;;15.75;6.97;;;;;;;;;;4970278;28;20057;-66
2022/08/02 03:48:04;;;;;;;14.27;5.97;;;;;;;;;;4922913;28;20059;-67
2022/08/02 03:50:55;;;;;;;14.52;6.07;;;;;;;;;;4970167;28;20123;-66
2022/08/02 03:53:27;;;;;;;17.33;6.60;;;;;;;;;;4970640;28;20058;-67
2022/08/02 03:55:59;;;;;;;13.02;5.75;;;;;;;;;;4970356;28;20047;-66
2022/08/02 03:58:29;;;;;;;13.32;6.47;;;;;;;;;;4984486;28;20054;-66
2022/08/02 04:00:59;;;;;;;14.00;6.15;;;;;;;;;;4989600;28;20046;-66
2022/08/02 04:03:30;;;;;;;12.77;6.65;;;;;;;;;;4989721;28;20077;-65
2022/08/02 04:06:00;;;;;;;16.27;6.72;;;;;;;;;;4989587;28;20050;-66
2022/08/02 04:08:33;;;;;;;11.73;6.53;;;;;;;;;;4974184;28;20058;-67
2022/08/02 04:13:56;;;;;;;12.50;5.80;;;;;;;;;;5028790;28;20180;-65
2022/08/02 04:16:43;;;;;;;12.50;5.43;;;;;;;;;;5064425;28;20064;-66
2022/08/02 04:19:41;;;;;;;14.20;5.78;;;;;;;;;;5068413;28;20064;-65
2022/08/02 04:22:18;;;;;;;17.70;6.07;;;;;;;;;;5068767;28;20053;-65
2022/08/02 04:24:53;;;;;;;11.40;5.65;;;;;;;;;;5035021;28;20207;-66
2022/08/02 04:27:26;;;;;;;14.73;6.53;;;;;;;;;;5035408;28;20175;-66
2022/08/02 04:30:17;;;;;;;17.00;6.75;;;;;;;;;;5048458;28;20412;-65
2022/08/02 04:32:47;;;;;;;12.50;5.95;;;;;;;;;;5048190;28;20624;-65
2022/08/02 04:35:19;;;;;;;13.15;5.82;;;;;;;;;;5048390;28;20068;-65
2022/08/02 04:37:51;;;;;;;11.35;5.63;;;;;;;;;;5048198;28;20056;-66
2022/08/02 04:40:38;;;;;;;12.90;5.72;;;;;;;;;;5015233;28;20049;-65
2022/08/02 04:43:08;;;;;;;13.77;7.18;;;;;;;;;;5047986;28;20408;-68
2022/08/02 04:45:39;;;;;;;12.20;5.53;;;;;;;;;;5048527;28;20476;-66
2022/08/02 04:48:10;;;;;;;11.32;5.50;;;;;;;;;;5048365;28;20056;-65
2022/08/02 04:50:40;;;;;;;14.18;5.75;;;;;;;;;;5020756;28;20532;-65
2022/08/02 04:53:10;;;;;;;13.32;6.03;;;;;;;;;;5027988;28;20062;-66
2022/08/02 04:55:40;;;;;;;13.73;6.10;;;;;;;;;;5028464;28;20057;-65
2022/08/02 04:58:11;;;;;;;14.63;5.82;;;;;;;;;;4988624;28;20058;-65
2022/08/02 05:01:01;;;;;;;11.82;6.13;;;;;;;;;;4988922;28;20061;-65
2022/08/02 05:03:31;;;;;;;13.52;5.60;;;;;;;;;;4988637;28;20520;-65
2022/08/02 05:06:02;;;;;;;13.23;6.75;;;;;;;;;;4972769;28;20395;-67
2022/08/02 05:08:48;;;;;;;11.48;6.05;;;;;;;;;;5008361;28;20076;-66
2022/08/02 05:11:23;;;;;;;10.57;5.65;;;;;;;;;;4969178;28;20495;-66
2022/08/02 05:14:05;;;;;;;11.05;5.20;;;;;;;;;;4954929;28;20525;-66
2022/08/02 05:16:35;;;;;;;12.90;5.28;;;;;;;;;;4969453;28;20058;-65
2022/08/02 05:19:06;;;;;;;10.55;6.13;;;;;;;;;;4969600;28;20426;-66
2022/08/02 05:21:37;;;;;;;13.50;5.80;;;;;;;;;;4969187;28;20051;-65
2022/08/02 05:24:07;;;;;;;11.38;5.75;;;;;;;;;;4969334;28;20108;-66
2022/08/02 05:26:37;;;;;;;17.55;6.10;;;;;;;;;;4984983;28;20051;-65
2022/08/02 05:29:07;;;;;;;10.85;5.45;;;;;;;;;;5002114;28;20119;-66
2022/08/02 05:31:38;;;;;;;11.45;5.53;;;;;;;;;;4991417;28;20541;-67
2022/08/02 05:34:08;;;;;;;12.13;4.97;;;;;;;;;;5008529;28;20057;-67
2022/08/02 05:36:40;;;;;;;10.75;5.05;;;;;;;;;;5008287;28;20062;-65
2022/08/02 05:39:10;;;;;;;11.13;5.82;;;;;;;;;;5008138;28;20187;-65
2022/08/02 05:41:47;;;;;;;16.00;5.03;;;;;;;;;;5007792;28;20061;-66
2022/08/02 05:44:18;;;;;;;14.02;5.40;;;;;;;;;;4959989;28;20050;-66
2022/08/02 05:46:48;;;;;;;11.48;5.43;;;;;;;;;;5011703;28;20058;-66
2022/08/02 05:49:18;;;;;;;12.23;5.18;;;;;;;;;;5011505;28;20093;-66
2022/08/02 05:52:11;;;;;;;10.40;5.45;;;;;;;;;;4991745;28;20049;-68
2022/08/02 05:55:07;;;;;;;13.05;5.28;;;;;;;;;;4971562;28;20051;-66
2022/08/02 05:57:57;;;;;;;11.65;5.03;;;;;;;;;;4940369;28;20534;-65
2022/08/02 06:00:31;;;;;;;10.45;5.47;;;;;;;;;;4933667;29;20456;-66
2022/08/02 06:03:17;;;;;;;13.57;5.40;;;;;;;;;;4934020;29;20066;-65
2022/08/02 06:06:03;;;;;;;16.50;5.32;;;;;;;;;;4952621;28;20055;-67
2022/08/02 06:08:50;;;;;;;11.10;5.28;;;;;;;;;;4948837;28;20055;-66
2022/08/02 06:11:23;;;;;;;13.48;5.80;;;;;;;;;;4933778;29;20129;-67
2022/08/02 06:13:54;;;;;;;12.35;5.88;;;;;;;;;;4933618;29;20066;-66
2022/08/02 06:16:27;;;;;;;12.43;5.90;;;;;;;;;;4933620;29;20064;-65
2022/08/02 06:19:02;;;;;;;11.70;5.57;;;;;;;;;;4920491;29;20544;-65
2022/08/02 06:21:33;;;;;;;;;;;;;;;;;;4933812;29;20051;-65
2022/08/02 06:24:24;;;;;;;12.65;4.90;;;;;;;;;;4933064;29;20047;-66
2022/08/02 06:26:56;;;;;;;13.15;5.82;;;;;;;;;;4933198;29;20059;-66
2022/08/02 06:29:28;;;;;;;19.05;5.82;;;;;;;;;;4942593;28;20051;-65
2022/08/02 06:31:59;;;;;;;12.85;4.93;;;;;;;;;;4946051;28;20051;-66
2022/08/02 06:34:29;;;;;;;11.43;5.53;;;;;;;;;;4974988;28;20057;-66
2022/08/02 06:37:37;;;;;;;11.75;5.75;;;;;;;;;;4988844;28;20058;-67
2022/08/02 06:40:28;;;;;;;11.85;6.00;;;;;;;;;;4968272;28;20404;-66
2022/08/02 06:43:10;;;;;;;14.48;5.15;;;;;;;;;;4914170;29;20079;-66
2022/08/02 06:45:41;;;;;;;13.27;5.70;;;;;;;;;;4913850;29;20067;-68
2022/08/02 06:48:11;;;;;;;11.10;5.60;;;;;;;;;;4913653;29;20060;-66
2022/08/02 06:50:43;;;;;;;12.82;5.22;;;;;;;;;;4910217;29;20064;-66
2022/08/02 06:53:14;;;;;;;14.38;6.25;;;;;;;;;;4932344;29;20052;-65
2022/08/02 06:55:44;;;;;;;17.25;7.10;;;;;;;;;;4932591;29;20452;-65
2022/08/02 06:58:14;;;;;;;14.30;5.85;;;;;;;;;;4930761;29;20059;-65
2022/08/02 07:00:46;;;;;;;11.00;5.25;;;;;;;;;;4913447;29;20064;-66
2022/08/02 07:03:17;;;;;;;11.52;5.82;;;;;;;;;;4932827;29;20099;-66
2022/08/02 07:05:47;;;;;;;10.70;5.40;;;;;;;;;;4891259;29;20045;-65
2022/08/02 07:08:18;;;;;;;13.00;5.95;;;;;;;;;;4838888;29;20057;-65
2022/08/02 07:10:49;;;;;;;14.98;5.10;;;;;;;;;;4857208;29;20057;-66
2022/08/02 07:13:20;;;;;;;12.75;6.03;;;;;;;;;;4875926;29;20065;-66
2022/08/02 07:15:50;;;;;;;13.07;6.18;;;;;;;;;;4860394;29;20057;-66
2022/08/02 07:18:21;;;;;;;12.95;4.93;;;;;;;;;;4875908;29;20064;-66
2022/08/02 07:20:52;;;;;;;11.73;5.47;;;;;;;;;;4918797;29;20056;-66
2022/08/02 07:23:22;;;;;;;16.45;5.35;;;;;;;;;;4932110;29;20058;-68
2022/08/02 07:25:52;;;;;;;13.77;5.75;;;;;;;;;;4942157;29;20156;-66
2022/08/02 07:28:32;;;;;;;12.82;5.40;;;;;;;;;;4929403;29;20048;-66
2022/08/02 07:31:03;;;;;;;16.00;6.00;;;;;;;;;;4924104;29;20421;-66
2022/08/02 07:33:34;;;;;;;10.73;5.38;;;;;;;;;;4932398;29;20059;-67
2022/08/02 07:36:08;;;;;;;11.18;5.00;;;;;;;;;;4900541;29;20059;-66
2022/08/02 07:38:44;;;;;;;13.25;6.50;;;;;;;;;;4932204;29;20680;-67
2022/08/02 07:41:15;;;;;;;15.32;5.05;;;;;;;;;;4912695;29;20048;-66
2022/08/02 07:43:45;;;;;;;11.45;5.57;;;;;;;;;;4913277;29;20052;-66
2022/08/02 07:46:15;;;;;;;12.95;7.43;;;;;;;;;;4948933;28;20685;-66
2022/08/02 07:48:47;;;;;;;11.27;5.28;;;;;;;;;;4938479;28;20055;-66
2022/08/02 07:51:18;;;;;;;16.98;5.80;;;;;;;;;;4970438;28;20043;-67
2022/08/02 07:53:48;;;;;;;12.85;5.78;;;;;;;;;;4970149;28;20109;-66
2022/08/02 07:56:32;;;;;;;14.52;5.82;;;;;;;;;;4970211;28;20062;-67
2022/08/02 07:59:03;;;;;;;11.30;5.70;;;;;;;;;;4974594;28;20054;-65
2022/08/02 08:01:34;;;;;;;14.60;5.55;;;;;;;;;;4957474;28;20095;-66
2022/08/02 08:04:08;;;;;;;12.02;5.80;;;;;;;;;;4989360;28;20046;-66
2022/08/02 08:06:38;;;;;;;14.85;6.78;;;;;;;;;;4989164;28;20418;-66
2022/08/02 08:09:09;;;;;;;12.90;5.63;;;;;;;;;;4989360;28;20054;-65
2022/08/02 08:11:40;;;;;;;11.77;5.35;;;;;;;;;;4989403;28;20054;-68
2022/08/02 08:14:11;;;;;;;15.18;5.57;;;;;;;;;;4989503;28;20053;-66
2022/08/02 08:16:45;;;;;;;11.35;5.68;;;;;;;;;;4972997;28;20058;-65
2022/08/02 08:19:15;;;;;;;14.48;5.70;;;;;;;;;;5001857;28;20054;-64
2022/08/02 08:21:45;;;;;;;12.60;6.30;;;;;;;;;;5008717;28;20069;-66
2022/08/02 08:24:16;;;;;;;12.13;5.57;;;;;;;;;;5017787;28;20564;-66
2022/08/02 08:26:46;;;;;;;12.77;6.47;;;;;;;;;;5028437;28;20568;-65
2022/08/02 08:29:19;;;;;;;15.27;5.85;;;;;;;;;;5008619;28;20116;-65
2022/08/02 08:31:49;;;;;;;15.63;7.78;;;;;;;;;;5008504;28;20417;-65
2022/08/02 08:34:20;;;;;;;15.43;6.97;;;;;;;;;;5008457;28;20695;-65
2022/08/02 08:36:50;;;;;;;15.80;6.85;;;;;;;;;;4969377;28;20055;-65
2022/08/02 08:39:20;;;;;;;13.43;6.47;;;;;;;;;;4937489;28;20055;-65
2022/08/02 08:41:50;;;;;;;13.40;5.45;;;;;;;;;;4980746;28;20058;-65
2022/08/02 08:44:21;;;;;;;12.07;5.63;;;;;;;;;;4989076;28;20046;-65
2022/08/02 08:46:54;;;;;;;13.93;5.90;;;;;;;;;;4988900;28;20062;-65
2022/08/02 08:49:32;;;;;;;11.77;6.28;;;;;;;;;;4973372;28;20054;-66
2022/08/02 08:52:06;;;;;;;13.73;6.13;;;;;;;;;;4989226;28;20058;-66
2022/08/02 08:54:43;;;;;;;13.38;6.72;;;;;;;;;;4950104;28;20419;-65
2022/08/02 08:57:19;;;;;;;11.10;5.43;;;;;;;;;;4949827;28;20051;-65
2022/08/02 08:59:49;;;;;;;12.82;5.78;;;;;;;;;;4930749;29;20067;-65
2022/08/02 09:02:19;;;;;;;15.65;7.97;;;;;;;;;;4930834;28;20435;-66
2022/08/02 09:04:56;;;;;;;14.43;6.10;;;;;;;;;;4930927;28;20060;-67
2022/08/02 09:07:27;;;;;;;14.52;6.13;;;;;;;;;;4931183;29;20060;-64
2022/08/02 09:09:58;;;;;;;16.15;6.30;;;;;;;;;;4931040;29;20389;-65
2022/08/02 09:12:27;;;;;;;12.07;5.85;;;;;;;;;;4930900;28;20062;-68
2022/08/02 09:15:04;;;;;;;13.10;5.95;;;;;;;;;;4934764;28;20059;-65
2022/08/02 09:17:35;;;;;;;13.57;6.28;;;;;;;;;;4950073;28;20060;-65
2022/08/02 09:20:08;;;;;;;13.48;7.05;;;;;;;;;;4934409;29;20443;-64
2022/08/02 09:22:38;;;;;;;12.50;6.72;;;;;;;;;;4934676;29;20051;-65
2022/08/02 09:25:15;;;;;;;15.00;7.45;;;;;;;;;;4902854;29;20440;-65
2022/08/02 09:27:48;;;;;;;12.52;6.10;;;;;;;;;;4918548;29;20052;-64
2022/08/02 09:30:19;;;;;;;12.70;6.07;;;;;;;;;;4934571;29;20055;-66
2022/08/02 09:32:49;;;;;;;11.68;6.20;;;;;;;;;;4903539;29;20554;-64
2022/08/02 09:35:39;;;;;;;15.52;6.47;;;;;;;;;;4959346;28;20054;-65
2022/08/02 09:38:30;;;;;;;;;;;;;;;;;;4991630;28;20489;-67
2022/08/02 09:41:01;;;;;;;16.13;5.97;;;;;;;;;;5000814;28;19928;-64
2022/08/02 09:43:42;;;;;;;11.95;6.07;;;;;;;;;;5011855;28;20058;-65
2022/08/02 09:46:36;;;;;;;15.23;6.30;;;;;;;;;;5011729;28;20533;-66
2022/08/02 09:49:18;;;;;;;12.38;6.43;;;;;;;;;;5011824;28;20061;-66
2022/08/02 09:51:50;;;;;;;13.88;6.75;;;;;;;;;;5011900;28;20054;-65
2022/08/02 09:54:24;;;;;;;14.85;6.47;;;;;;;;;;5011694;28;20057;-65
2022/08/02 09:57:01;;;;;;;13.43;6.35;;;;;;;;;;4982375;28;20060;-67
2022/08/02 09:59:32;;;;;;;14.45;6.68;;;;;;;;;;5031138;28;20069;-65
2022/08/02 10:02:10;;;;;;;14.00;7.03;;;;;;;;;;5031483;28;20069;-66
2022/08/02 10:04:45;;;;;;;12.18;6.57;;;;;;;;;;5031297;28;20060;-67
2022/08/02 10:07:22;;;;;;;14.98;6.15;;;;;;;;;;5015697;28;20057;-66
2022/08/02 10:09:54;;;;;;;12.80;6.10;;;;;;;;;;5014439;28;20076;-66
2022/08/02 10:12:25;;;;;;;11.80;6.10;;;;;;;;;;5026323;28;20068;-67
2022/08/02 10:14:55;;;;;;;13.60;6.32;;;;;;;;;;5010931;28;20049;-66
2022/08/02 10:17:25;;;;;;;16.80;6.95;;;;;;;;;;4991513;28;20057;-66
2022/08/02 10:19:56;;;;;;;14.05;6.97;;;;;;;;;;4991447;28;20054;-64
2022/08/02 10:22:34;;;;;;;16.88;6.35;;;;;;;;;;4959269;28;20061;-65
2022/08/02 10:25:06;;;;;;;15.48;7.15;;;;;;;;;;4973345;28;20052;-65
2022/08/02 10:27:37;;;;;;;14.50;7.32;;;;;;;;;;5030635;28;20053;-66
2022/08/02 10:30:30;;;;;;;20.02;6.72;;;;;;;;;;5009991;28;20152;-65
2022/08/02 10:33:03;;;;;;;17.13;7.32;;;;;;;;;;5010965;28;20065;-65
2022/08/02 10:35:37;;;;;;;15.18;6.85;;;;;;;;;;5010720;28;20058;-66
2022/08/02 10:38:10;;;;;;;15.73;7.55;;;;;;;;;;5010726;28;20058;-65
2022/08/02 10:40:48;;;;;;;;;;;;;;;;;;5011356;28;20057;-65
2022/08/02 10:43:36;;;;;;;17.83;7.45;;;;;;;;;;5010549;28;19925;-65
2022/08/02 10:46:34;;;;;;;18.48;8.57;;;;;;;;;;4990646;28;20046;-65
2022/08/02 10:49:12;;;;;;;26.33;11.02;;;;;;;;;;4942631;28;20050;-65
2022/08/02 10:52:04;;;;;;;21.23;8.55;;;;;;;;;;4991056;28;20058;-66
2022/08/02 10:54:55;;;;;;;19.65;8.30;;;;;;;;;;4958447;28;20054;-67
2022/08/02 10:57:34;;;;;;;21.38;7.97;;;;;;;;;;4990987;28;20050;-66
2022/08/02 11:00:13;;;;;;;24.33;9.20;;;;;;;;;;4990392;28;20057;-65
2022/08/02 11:02:48;;;;;;;18.85;8.65;;;;;;;;;;4990974;28;20050;-65
2022/08/02 11:05:33;;;;;;;18.17;8.23;;;;;;;;;;4990476;28;20054;-64
2022/08/02 11:08:21;;;;;;;18.38;9.05;;;;;;;;;;4970795;28;20529;-66
2022/08/02 11:11:03;;;;;;;17.45;8.18;;;;;;;;;;4951295;28;20511;-66
2022/08/02 11:14:02;;;;;;;24.08;9.25;;;;;;;;;;4970574;28;20526;-67
2022/08/02 11:16:54;;;;;;;18.50;8.70;;;;;;;;;;4954676;28;20058;-65
2022/08/02 11:19:24;;;;;;;;;;;;;;;;;;4971494;28;20054;-66
2022/08/02 11:22:18;;;;;;;21.45;9.40;;;;;;;;;;4938699;28;19926;-65
2022/08/02 11:24:54;;;;;;;18.50;8.73;;;;;;;;;;4970568;28;20055;-65
2022/08/02 11:27:26;;;;;;;19.35;9.25;;;;;;;;;;4954619;28;20051;-66
2022/08/02 11:29:56;;;;;;;18.15;9.02;;;;;;;;;;4951174;28;20083;-66
2022/08/02 11:32:27;;;;;;;18.10;9.00;;;;;;;;;;4919377;29;20059;-65
2022/08/02 11:35:02;;;;;;;25.80;11.13;;;;;;;;;;4950889;28;20051;-64
2022/08/02 11:37:36;;;;;;;21.45;11.55;;;;;;;;;;4942404;28;20547;-65
2022/08/02 11:40:15;;;;;;;24.10;11.00;;;;;;;;;;4932064;29;20500;-65
2022/08/02 11:42:52;;;;;;;19.85;9.73;;;;;;;;;;4915155;29;20071;-64
2022/08/02 11:45:25;;;;;;;23.38;10.27;;;;;;;;;;4943474;28;20062;-65
2022/08/02 11:47:58;;;;;;;25.70;10.75;;;;;;;;;;4952176;28;20059;-65
2022/08/02 11:50:28;;;;;;;21.95;10.93;;;;;;;;;;4970373;28;20059;-65
2022/08/02 11:52:58;;;;;;;21.13;10.55;;;;;;;;;;4970177;28;20062;-65
2022/08/02 11:55:30;;;;;;;22.83;11.07;;;;;;;;;;4954595;28;20065;-65
2022/08/02 11:58:03;;;;;;;22.63;10.23;;;;;;;;;;4970175;28;20058;-65
2022/08/02 12:00:35;;;;;;;18.63;9.50;;;;;;;;;;4970151;28;20059;-64
2022/08/02 12:03:07;;;;;;;22.73;10.52;;;;;;;;;;4969901;28;20055;-66
2022/08/02 12:05:37;;;;;;;22.50;11.35;;;;;;;;;;4950260;28;20047;-65
2022/08/02 12:08:28;;;;;;;22.30;9.77;;;;;;;;;;4934342;28;20074;-67
2022/08/02 12:11:02;;;;;;;18.95;11.15;;;;;;;;;;4931549;29;20055;-65
2022/08/02 12:13:44;;;;;;;22.85;11.32;;;;;;;;;;4986395;28;20065;-66
2022/08/02 12:19:29;;;;;;;24.52;11.18;;;;;;;;;;4912268;29;20059;-66
2022/08/02 12:22:18;;;;;;;17.77;8.70;;;;;;;;;;4893417;29;20048;-66
2022/08/02 12:24:57;;;;;;;16.00;8.90;;;;;;;;;;4907604;29;20056;-65
2022/08/02 12:27:40;;;;;;;15.95;8.48;;;;;;;;;;4893383;29;20106;-66
2022/08/02 12:30:13;;;;;;;16.30;8.93;;;;;;;;;;4874631;29;20059;-64
2022/08/02 12:33:07;;;;;;;33.20;14.93;;;;;;;;;;4861133;29;20549;-64
2022/08/02 12:35:41;;;;;;;27.83;14.15;;;;;;;;;;4874379;29;20419;-66
2022/08/02 12:38:13;;;;;;;93.65;35.15;;;;;;;;;;4846708;29;20056;-65
2022/08/02 12:40:45;;;;;;;19.08;11.13;;;;;;;;;;4893139;29;20064;-65
2022/08/02 12:43:23;;;;;;;181.57;84.63;;;;;;;;;;4883912;29;20068;-64
2022/08/02 12:45:56;;;;;;;25.10;11.02;;;;;;;;;;4874569;29;20057;-65
2022/08/02 12:48:37;;;;;;;22.63;10.70;;;;;;;;;;4866566;29;20550;-65
2022/08/02 12:51:37;;;;;;;20.15;10.50;;;;;;;;;;4911767;29;20056;-66
2022/08/02 12:54:31;;;;;;;20.80;9.35;;;;;;;;;;4883498;29;20051;-66
2022/08/02 12:57:16;;;;;;;18.52;9.63;;;;;;;;;;4948834;29;20051;-67
2022/08/02 12:59:52;;;;;;;22.00;9.02;;;;;;;;;;4954027;29;20051;-66
2022/08/02 13:02:22;;;;;;;16.17;9.55;;;;;;;;;;4946380;29;20083;-66
2022/08/02 13:04:53;;;;;;;15.80;8.52;;;;;;;;;;4934874;29;20067;-67
2022/08/02 13:07:23;;;;;;;16.17;8.20;;;;;;;;;;4940930;29;20768;-67
2022/08/02 13:09:54;;;;;;;15.25;7.43;;;;;;;;;;4953620;29;20066;-67
2022/08/02 13:12:33;;;;;;;12.63;7.47;;;;;;;;;;4954104;29;20055;-68
2022/08/02 13:15:04;;;;;;;13.50;7.40;;;;;;;;;;4956882;28;20058;-68
2022/08/02 13:17:54;;;;;;;14.95;7.47;;;;;;;;;;4973217;28;20055;-67
2022/08/02 13:20:26;;;;;;;16.85;9.27;;;;;;;;;;4972817;28;20414;-69
2022/08/02 13:22:57;;;;;;;28.27;14.98;;;;;;;;;;4940996;28;20085;-66
2022/08/02 13:25:32;;;;;;;43.70;24.55;;;;;;;;;;4991683;28;20410;-67
2022/08/02 13:28:02;;;;;;;44.75;25.55;;;;;;;;;;4993901;28;20058;-66
2022/08/02 13:30:32;;;;;;;25.40;14.90;;;;;;;;;;4995992;28;20500;-67
2022/08/02 13:33:03;;;;;;;19.38;10.27;;;;;;;;;;4995901;28;20080;-66
2022/08/02 13:35:34;;;;;;;18.02;9.38;;;;;;;;;;5009139;28;20045;-64
2022/08/02 13:38:05;;;;;;;21.48;12.35;;;;;;;;;;5011691;28;20117;-67
2022/08/02 13:41:07;;;;;;;20.73;11.63;;;;;;;;;;4991983;28;20054;-66
2022/08/02 13:43:33;;;;;;;20.35;11.10;;;;;;;;;;4975912;28;20514;-66
2022/08/02 13:46:23;;;;;;;23.50;10.73;;;;;;;;;;4978817;28;20061;-66
2022/08/02 13:48:58;;;;;;;16.95;7.55;;;;;;;;;;4992187;28;20058;-65
2022/08/02 13:51:28;;;;;;;11.52;7.07;;;;;;;;;;5011129;28;20046;-67
2022/08/02 13:54:05;;;;;;;17.27;9.05;;;;;;;;;;5011410;28;20049;-67
2022/08/02 13:56:36;;;;;;;11.35;5.20;;;;;;;;;;4978731;28;20501;-67
2022/08/02 13:59:06;;;;;;;10.30;6.10;;;;;;;;;;5013609;28;20437;-67
2022/08/02 14:01:57;;;;;;;8.98;4.57;;;;;;;;;;5030667;28;20057;-67
2022/08/02 14:04:29;;;;;;;9.07;4.60;;;;;;;;;;5030236;28;20433;-66
2022/08/02 14:07:00;;;;;;;9.70;3.97;;;;;;;;;;5030839;28;20057;-65
2022/08/02 14:09:34;;;;;;;6.60;4.35;;;;;;;;;;5031273;28;20518;-64
2022/08/02 14:12:05;;;;;;;10.63;4.00;;;;;;;;;;5030215;28;20053;-64
2022/08/02 14:14:36;;;;;;;12.05;4.40;;;;;;;;;;4994759;28;20054;-64
2022/08/02 14:17:07;;;;;;;9.88;4.90;;;;;;;;;;4963610;28;20054;-65
2022/08/02 14:19:39;;;;;;;9.45;4.63;;;;;;;;;;5010899;28;20509;-67
2022/08/02 14:22:09;;;;;;;10.25;5.88;;;;;;;;;;5010689;28;20422;-65
2022/08/02 14:24:41;;;;;;;8.32;4.82;;;;;;;;;;5010840;28;20069;-65
2022/08/02 14:27:11;;;;;;;16.88;8.50;;;;;;;;;;5029217;28;20046;-67
2022/08/02 14:29:42;;;;;;;10.15;5.28;;;;;;;;;;5001187;28;20656;-65
2022/08/02 14:32:12;;;;;;;6.45;3.85;;;;;;;;;;4990579;28;20069;-64
2022/08/02 14:34:43;;;;;;;7.20;3.63;;;;;;;;;;4952216;28;20055;-64
2022/08/02 14:37:14;;;;;;;6.20;4.40;;;;;;;;;;4951959;28;20431;-64
2022/08/02 14:39:44;;;;;;;7.50;4.25;;;;;;;;;;4922163;29;20059;-65
2022/08/02 14:42:29;;;;;;;6.43;3.80;;;;;;;;;;4898136;29;20048;-70
2022/08/02 14:45:00;;;;;;;7.35;3.38;;;;;;;;;;4913634;29;20052;-67
2022/08/02 14:47:31;;;;;;;7.55;3.50;;;;;;;;;;4913893;29;20524;-65
2022/08/02 14:50:01;;;;;;;6.93;3.40;;;;;;;;;;4913987;29;20060;-68
2022/08/02 14:52:31;;;;;;;6.43;3.50;;;;;;;;;;4894827;29;20044;-65
2022/08/02 14:55:04;;;;;;;6.38;3.65;;;;;;;;;;4891172;29;20200;-66
2022/08/02 14:57:35;;;;;;;6.95;3.30;;;;;;;;;;4871902;29;20061;-66
2022/08/02 15:00:06;;;;;;;6.38;3.45;;;;;;;;;;4906113;29;20052;-67
2022/08/02 15:02:36;;;;;;;6.20;4.18;;;;;;;;;;4887702;29;20342;-65
2022/08/02 15:05:07;;;;;;;7.13;3.63;;;;;;;;;;4836804;29;20060;-65
2022/08/02 15:07:37;;;;;;;7.53;3.53;;;;;;;;;;4886781;29;20524;-65
2022/08/02 15:10:14;;;;;;;9.90;3.58;;;;;;;;;;4894744;29;20057;-65
2022/08/02 15:12:46;;;;;;;5.85;3.35;;;;;;;;;;4919623;29;21093;-65
2022/08/02 15:15:16;;;;;;;5.80;3.22;;;;;;;;;;4882737;29;20748;-65
2022/08/02 15:17:47;;;;;;;8.52;3.70;;;;;;;;;;4925446;29;20063;-66
2022/08/02 15:20:18;;;;;;;5.65;3.22;;;;;;;;;;4931988;29;20048;-65